sensor_id;sensor_type;location;lat;lon;timestamp;P1;durP1;ratioP1;P2;durP2;ratioP2
23573;SDS011;11965;53.640;10.050;2022-12-24T00:02:15;12.11;;;11.95;;
23573;SDS011;11965;53.640;10.050;2022-12-24T00:04:42;12.30;;;12.17;;
23573;SDS011;11965;53.640;10.050;2022-12-24T00:07:09;12.21;;;12.08;;
23573;SDS011;11965;53.640;10.050;2022-12-24T00:09:37;12.36;;;12.21;;
23573;SDS011;11965;53.640;10.050;2022-12-24T00:12:04;11.53;;;11.45;;
23573;SDS011;11965;53.640;10.050;2022-12-24T00:14:31;11.60;;;11.53;;
23573;SDS011;11965;53.640;10.050;2022-12-24T00:17:00;12.31;;;12.13;;
23573;SDS011;11965;53.640;10.050;2022-12-24T00:19:27;12.15;;;11.92;;
23573;SDS011;11965;53.640;10.050;2022-12-24T00:21:54;11.91;;;11.75;;
23573;SDS011;11965;53.640;10.050;2022-12-24T00:24:21;12.51;;;12.28;;
23573;SDS011;11965;53.640;10.050;2022-12-24T00:26:47;12.62;;;12.33;;
23573;SDS011;11965;53.640;10.050;2022-12-24T00:29:14;12.52;;;12.22;;
23573;SDS011;11965;53.640;10.050;2022-12-24T00:31:41;12.82;;;12.60;;
23573;SDS011;11965;53.640;10.050;2022-12-24T00:34:10;13.34;;;13.02;;
23573;SDS011;11965;53.640;10.050;2022-12-24T00:36:36;13.28;;;13.02;;
23573;SDS011;11965;53.640;10.050;2022-12-24T00:39:03;13.32;;;13.07;;
23573;SDS011;11965;53.640;10.050;2022-12-24T00:41:30;12.82;;;12.48;;
23573;SDS011;11965;53.640;10.050;2022-12-24T00:43:58;12.93;;;12.63;;
23573;SDS011;11965;53.640;10.050;2022-12-24T00:46:27;12.94;;;12.56;;
23573;SDS011;11965;53.640;10.050;2022-12-24T00:48:56;13.20;;;12.75;;
23573;SDS011;11965;53.640;10.050;2022-12-24T00:51:24;13.57;;;13.23;;
23573;SDS011;11965;53.640;10.050;2022-12-24T00:53:51;13.41;;;13.08;;
23573;SDS011;11965;53.640;10.050;2022-12-24T00:56:19;13.27;;;12.90;;
23573;SDS011;11965;53.640;10.050;2022-12-24T00:58:47;13.11;;;12.78;;
23573;SDS011;11965;53.640;10.050;2022-12-24T01:01:14;13.02;;;12.72;;
23573;SDS011;11965;53.640;10.050;2022-12-24T01:03:42;13.23;;;12.95;;
23573;SDS011;11965;53.640;10.050;2022-12-24T01:06:11;13.35;;;13.08;;
23573;SDS011;11965;53.640;10.050;2022-12-24T01:08:40;13.40;;;13.04;;
23573;SDS011;11965;53.640;10.050;2022-12-24T01:11:08;13.86;;;13.44;;
23573;SDS011;11965;53.640;10.050;2022-12-24T01:13:36;13.46;;;13.06;;
23573;SDS011;11965;53.640;10.050;2022-12-24T01:16:11;13.72;;;13.28;;
23573;SDS011;11965;53.640;10.050;2022-12-24T01:18:41;14.56;;;14.02;;
23573;SDS011;11965;53.640;10.050;2022-12-24T01:21:08;14.40;;;13.95;;
23573;SDS011;11965;53.640;10.050;2022-12-24T01:23:35;14.73;;;14.08;;
23573;SDS011;11965;53.640;10.050;2022-12-24T01:26:04;14.34;;;13.94;;
23573;SDS011;11965;53.640;10.050;2022-12-24T01:28:31;15.11;;;14.70;;
23573;SDS011;11965;53.640;10.050;2022-12-24T01:30:58;15.03;;;14.60;;
23573;SDS011;11965;53.640;10.050;2022-12-24T01:33:27;15.38;;;14.99;;
23573;SDS011;11965;53.640;10.050;2022-12-24T01:35:55;15.00;;;14.68;;
23573;SDS011;11965;53.640;10.050;2022-12-24T01:38:22;14.73;;;14.28;;
23573;SDS011;11965;53.640;10.050;2022-12-24T01:40:49;15.43;;;14.86;;
23573;SDS011;11965;53.640;10.050;2022-12-24T01:43:35;15.53;;;15.08;;
23573;SDS011;11965;53.640;10.050;2022-12-24T01:46:02;15.36;;;14.76;;
23573;SDS011;11965;53.640;10.050;2022-12-24T01:48:33;15.45;;;14.80;;
23573;SDS011;11965;53.640;10.050;2022-12-24T01:51:05;15.67;;;15.04;;
23573;SDS011;11965;53.640;10.050;2022-12-24T01:53:41;14.75;;;14.32;;
23573;SDS011;11965;53.640;10.050;2022-12-24T01:56:13;15.33;;;14.80;;
23573;SDS011;11965;53.640;10.050;2022-12-24T01:58:45;14.78;;;14.17;;
23573;SDS011;11965;53.640;10.050;2022-12-24T02:01:17;14.95;;;14.49;;
23573;SDS011;11965;53.640;10.050;2022-12-24T02:03:44;15.09;;;14.52;;
23573;SDS011;11965;53.640;10.050;2022-12-24T02:06:12;15.41;;;15.00;;
23573;SDS011;11965;53.640;10.050;2022-12-24T02:08:42;15.11;;;14.82;;
23573;SDS011;11965;53.640;10.050;2022-12-24T02:11:10;14.84;;;14.58;;
23573;SDS011;11965;53.640;10.050;2022-12-24T02:13:39;14.05;;;13.77;;
23573;SDS011;11965;53.640;10.050;2022-12-24T02:16:16;13.67;;;13.35;;
23573;SDS011;11965;53.640;10.050;2022-12-24T02:18:59;14.35;;;13.93;;
23573;SDS011;11965;53.640;10.050;2022-12-24T02:21:47;14.24;;;13.96;;
23573;SDS011;11965;53.640;10.050;2022-12-24T02:24:40;13.78;;;13.62;;
23573;SDS011;11965;53.640;10.050;2022-12-24T02:27:50;13.07;;;12.85;;
23573;SDS011;11965;53.640;10.050;2022-12-24T02:30:24;12.88;;;12.59;;
23573;SDS011;11965;53.640;10.050;2022-12-24T02:33:02;14.26;;;13.89;;
23573;SDS011;11965;53.640;10.050;2022-12-24T02:35:42;13.34;;;13.15;;
23573;SDS011;11965;53.640;10.050;2022-12-24T02:38:17;13.36;;;13.08;;
23573;SDS011;11965;53.640;10.050;2022-12-24T02:40:51;13.11;;;12.75;;
23573;SDS011;11965;53.640;10.050;2022-12-24T02:43:23;13.61;;;13.40;;
23573;SDS011;11965;53.640;10.050;2022-12-24T02:45:57;14.10;;;13.81;;
23573;SDS011;11965;53.640;10.050;2022-12-24T02:48:28;13.61;;;13.47;;
23573;SDS011;11965;53.640;10.050;2022-12-24T02:51:00;13.47;;;13.25;;
23573;SDS011;11965;53.640;10.050;2022-12-24T02:53:29;13.22;;;13.02;;
23573;SDS011;11965;53.640;10.050;2022-12-24T02:59:13;13.38;;;13.23;;
23573;SDS011;11965;53.640;10.050;2022-12-24T03:01:59;13.27;;;13.04;;
23573;SDS011;11965;53.640;10.050;2022-12-24T03:04:44;13.36;;;13.06;;
23573;SDS011;11965;53.640;10.050;2022-12-24T03:07:23;12.35;;;12.18;;
23573;SDS011;11965;53.640;10.050;2022-12-24T03:10:06;12.65;;;12.51;;
23573;SDS011;11965;53.640;10.050;2022-12-24T03:12:44;12.88;;;12.74;;
23573;SDS011;11965;53.640;10.050;2022-12-24T03:15:16;12.51;;;12.39;;
23573;SDS011;11965;53.640;10.050;2022-12-24T03:17:48;12.12;;;12.03;;
23573;SDS011;11965;53.640;10.050;2022-12-24T03:20:19;12.58;;;12.48;;
23573;SDS011;11965;53.640;10.050;2022-12-24T03:22:51;12.25;;;12.00;;
23573;SDS011;11965;53.640;10.050;2022-12-24T03:25:18;11.69;;;11.42;;
23573;SDS011;11965;53.640;10.050;2022-12-24T03:27:51;12.25;;;12.13;;
23573;SDS011;11965;53.640;10.050;2022-12-24T03:30:19;11.68;;;11.61;;
23573;SDS011;11965;53.640;10.050;2022-12-24T03:32:47;11.13;;;11.03;;
23573;SDS011;11965;53.640;10.050;2022-12-24T03:35:14;10.85;;;10.73;;
23573;SDS011;11965;53.640;10.050;2022-12-24T03:37:41;10.68;;;10.55;;
23573;SDS011;11965;53.640;10.050;2022-12-24T03:40:08;10.47;;;10.28;;
23573;SDS011;11965;53.640;10.050;2022-12-24T03:42:35;10.76;;;10.58;;
23573;SDS011;11965;53.640;10.050;2022-12-24T03:45:03;10.24;;;10.09;;
23573;SDS011;11965;53.640;10.050;2022-12-24T03:47:31;10.34;;;10.14;;
23573;SDS011;11965;53.640;10.050;2022-12-24T03:49:59;10.08;;;9.93;;
23573;SDS011;11965;53.640;10.050;2022-12-24T03:52:26;10.88;;;10.67;;
23573;SDS011;11965;53.640;10.050;2022-12-24T03:54:53;10.68;;;10.51;;
23573;SDS011;11965;53.640;10.050;2022-12-24T03:57:20;10.12;;;10.04;;
23573;SDS011;11965;53.640;10.050;2022-12-24T03:59:47;10.05;;;9.99;;
23573;SDS011;11965;53.640;10.050;2022-12-24T04:02:14;9.89;;;9.83;;
23573;SDS011;11965;53.640;10.050;2022-12-24T04:04:41;10.21;;;10.15;;
23573;SDS011;11965;53.640;10.050;2022-12-24T04:07:09;10.24;;;10.12;;
23573;SDS011;11965;53.640;10.050;2022-12-24T04:09:36;10.09;;;9.96;;
23573;SDS011;11965;53.640;10.050;2022-12-24T04:12:05;9.70;;;9.55;;
23573;SDS011;11965;53.640;10.050;2022-12-24T04:14:32;9.81;;;9.66;;
23573;SDS011;11965;53.640;10.050;2022-12-24T04:16:59;9.28;;;9.10;;
23573;SDS011;11965;53.640;10.050;2022-12-24T04:19:26;9.47;;;9.36;;
23573;SDS011;11965;53.640;10.050;2022-12-24T04:21:53;9.69;;;9.63;;
23573;SDS011;11965;53.640;10.050;2022-12-24T04:24:21;9.28;;;9.19;;
23573;SDS011;11965;53.640;10.050;2022-12-24T04:26:48;9.59;;;9.47;;
23573;SDS011;11965;53.640;10.050;2022-12-24T04:29:15;9.53;;;9.41;;
23573;SDS011;11965;53.640;10.050;2022-12-24T04:31:42;9.90;;;9.71;;
23573;SDS011;11965;53.640;10.050;2022-12-24T04:34:09;9.93;;;9.84;;
23573;SDS011;11965;53.640;10.050;2022-12-24T04:36:36;9.42;;;9.26;;
23573;SDS011;11965;53.640;10.050;2022-12-24T04:39:03;9.74;;;9.60;;
23573;SDS011;11965;53.640;10.050;2022-12-24T04:41:32;10.08;;;9.97;;
23573;SDS011;11965;53.640;10.050;2022-12-24T04:43:59;9.91;;;9.80;;
23573;SDS011;11965;53.640;10.050;2022-12-24T04:46:26;9.69;;;9.59;;
23573;SDS011;11965;53.640;10.050;2022-12-24T04:48:55;9.96;;;9.79;;
23573;SDS011;11965;53.640;10.050;2022-12-24T04:51:23;9.91;;;9.71;;
23573;SDS011;11965;53.640;10.050;2022-12-24T04:53:51;10.20;;;10.00;;
23573;SDS011;11965;53.640;10.050;2022-12-24T04:56:20;9.66;;;9.54;;
23573;SDS011;11965;53.640;10.050;2022-12-24T04:58:50;9.94;;;9.80;;
23573;SDS011;11965;53.640;10.050;2022-12-24T05:01:18;9.62;;;9.51;;
23573;SDS011;11965;53.640;10.050;2022-12-24T05:03:48;9.59;;;9.44;;
23573;SDS011;11965;53.640;10.050;2022-12-24T05:06:17;9.38;;;9.18;;
23573;SDS011;11965;53.640;10.050;2022-12-24T05:08:46;10.01;;;9.75;;
23573;SDS011;11965;53.640;10.050;2022-12-24T05:11:13;9.78;;;9.61;;
23573;SDS011;11965;53.640;10.050;2022-12-24T05:13:40;9.19;;;9.03;;
23573;SDS011;11965;53.640;10.050;2022-12-24T05:16:10;9.48;;;9.32;;
23573;SDS011;11965;53.640;10.050;2022-12-24T05:18:37;9.75;;;9.54;;
23573;SDS011;11965;53.640;10.050;2022-12-24T05:21:06;9.38;;;9.07;;
23573;SDS011;11965;53.640;10.050;2022-12-24T05:23:35;9.92;;;9.68;;
23573;SDS011;11965;53.640;10.050;2022-12-24T05:26:24;10.06;;;9.79;;
23573;SDS011;11965;53.640;10.050;2022-12-24T05:28:56;9.41;;;9.12;;
23573;SDS011;11965;53.640;10.050;2022-12-24T05:31:26;9.93;;;9.62;;
23573;SDS011;11965;53.640;10.050;2022-12-24T05:33:55;9.65;;;9.46;;
23573;SDS011;11965;53.640;10.050;2022-12-24T05:36:22;9.84;;;9.66;;
23573;SDS011;11965;53.640;10.050;2022-12-24T05:38:49;9.58;;;9.39;;
23573;SDS011;11965;53.640;10.050;2022-12-24T05:41:17;9.68;;;9.40;;
23573;SDS011;11965;53.640;10.050;2022-12-24T05:43:44;9.58;;;9.41;;
23573;SDS011;11965;53.640;10.050;2022-12-24T05:46:12;9.69;;;9.49;;
23573;SDS011;11965;53.640;10.050;2022-12-24T05:48:42;9.45;;;9.18;;
23573;SDS011;11965;53.640;10.050;2022-12-24T05:51:09;9.65;;;9.36;;
23573;SDS011;11965;53.640;10.050;2022-12-24T05:53:39;9.47;;;9.27;;
23573;SDS011;11965;53.640;10.050;2022-12-24T05:56:07;9.62;;;9.46;;
23573;SDS011;11965;53.640;10.050;2022-12-24T05:58:36;9.68;;;9.52;;
23573;SDS011;11965;53.640;10.050;2022-12-24T06:01:04;9.23;;;9.04;;
23573;SDS011;11965;53.640;10.050;2022-12-24T06:03:32;9.75;;;9.52;;
23573;SDS011;11965;53.640;10.050;2022-12-24T06:06:02;9.70;;;9.53;;
23573;SDS011;11965;53.640;10.050;2022-12-24T06:08:32;8.83;;;8.70;;
23573;SDS011;11965;53.640;10.050;2022-12-24T06:11:01;8.95;;;8.69;;
23573;SDS011;11965;53.640;10.050;2022-12-24T06:13:31;9.01;;;8.66;;
23573;SDS011;11965;53.640;10.050;2022-12-24T06:15:59;9.42;;;9.11;;
23573;SDS011;11965;53.640;10.050;2022-12-24T06:18:27;9.51;;;9.25;;
23573;SDS011;11965;53.640;10.050;2022-12-24T06:20:56;8.95;;;8.71;;
23573;SDS011;11965;53.640;10.050;2022-12-24T06:23:27;8.27;;;8.15;;
23573;SDS011;11965;53.640;10.050;2022-12-24T06:25:55;8.68;;;8.58;;
23573;SDS011;11965;53.640;10.050;2022-12-24T06:28:25;9.32;;;9.02;;
23573;SDS011;11965;53.640;10.050;2022-12-24T06:30:52;8.46;;;8.21;;
23573;SDS011;11965;53.640;10.050;2022-12-24T06:33:19;8.59;;;8.43;;
23573;SDS011;11965;53.640;10.050;2022-12-24T06:35:46;8.43;;;8.25;;
23573;SDS011;11965;53.640;10.050;2022-12-24T06:38:13;8.89;;;8.68;;
23573;SDS011;11965;53.640;10.050;2022-12-24T06:40:42;8.62;;;8.41;;
23573;SDS011;11965;53.640;10.050;2022-12-24T06:43:11;8.23;;;8.03;;
23573;SDS011;11965;53.640;10.050;2022-12-24T06:45:39;8.35;;;8.23;;
23573;SDS011;11965;53.640;10.050;2022-12-24T06:48:10;7.82;;;7.69;;
23573;SDS011;11965;53.640;10.050;2022-12-24T06:50:38;7.69;;;7.47;;
23573;SDS011;11965;53.640;10.050;2022-12-24T06:53:05;7.87;;;7.71;;
23573;SDS011;11965;53.640;10.050;2022-12-24T06:55:32;7.11;;;7.11;;
23573;SDS011;11965;53.640;10.050;2022-12-24T06:58:01;7.66;;;7.48;;
23573;SDS011;11965;53.640;10.050;2022-12-24T07:00:29;7.99;;;7.78;;
23573;SDS011;11965;53.640;10.050;2022-12-24T07:02:56;7.75;;;7.49;;
23573;SDS011;11965;53.640;10.050;2022-12-24T07:05:22;7.88;;;7.64;;
23573;SDS011;11965;53.640;10.050;2022-12-24T07:07:49;7.17;;;7.05;;
23573;SDS011;11965;53.640;10.050;2022-12-24T07:10:17;7.58;;;7.42;;
23573;SDS011;11965;53.640;10.050;2022-12-24T07:12:46;7.16;;;7.02;;
23573;SDS011;11965;53.640;10.050;2022-12-24T07:15:15;7.29;;;7.09;;
23573;SDS011;11965;53.640;10.050;2022-12-24T07:17:42;6.91;;;6.84;;
23573;SDS011;11965;53.640;10.050;2022-12-24T07:20:14;6.85;;;6.64;;
23573;SDS011;11965;53.640;10.050;2022-12-24T07:22:41;6.50;;;6.33;;
23573;SDS011;11965;53.640;10.050;2022-12-24T07:25:09;7.05;;;6.80;;
23573;SDS011;11965;53.640;10.050;2022-12-24T07:27:37;6.74;;;6.54;;
23573;SDS011;11965;53.640;10.050;2022-12-24T07:30:05;6.34;;;6.19;;
23573;SDS011;11965;53.640;10.050;2022-12-24T07:32:35;6.28;;;6.13;;
23573;SDS011;11965;53.640;10.050;2022-12-24T07:35:02;6.32;;;6.22;;
23573;SDS011;11965;53.640;10.050;2022-12-24T07:37:29;6.28;;;6.15;;
23573;SDS011;11965;53.640;10.050;2022-12-24T07:39:56;6.12;;;6.12;;
23573;SDS011;11965;53.640;10.050;2022-12-24T07:42:23;6.46;;;6.30;;
23573;SDS011;11965;53.640;10.050;2022-12-24T07:44:50;5.99;;;5.90;;
23573;SDS011;11965;53.640;10.050;2022-12-24T07:47:17;5.81;;;5.78;;
23573;SDS011;11965;53.640;10.050;2022-12-24T07:49:45;6.00;;;5.89;;
23573;SDS011;11965;53.640;10.050;2022-12-24T07:52:12;6.08;;;5.95;;
23573;SDS011;11965;53.640;10.050;2022-12-24T07:54:39;5.98;;;5.89;;
23573;SDS011;11965;53.640;10.050;2022-12-24T07:57:06;5.99;;;5.90;;
23573;SDS011;11965;53.640;10.050;2022-12-24T07:59:33;6.18;;;6.13;;
23573;SDS011;11965;53.640;10.050;2022-12-24T08:02:00;5.93;;;5.88;;
23573;SDS011;11965;53.640;10.050;2022-12-24T08:04:29;6.08;;;6.03;;
23573;SDS011;11965;53.640;10.050;2022-12-24T08:06:59;6.18;;;6.05;;
23573;SDS011;11965;53.640;10.050;2022-12-24T08:09:26;5.86;;;5.71;;
23573;SDS011;11965;53.640;10.050;2022-12-24T08:11:52;6.00;;;5.84;;
23573;SDS011;11965;53.640;10.050;2022-12-24T08:14:19;5.71;;;5.56;;
23573;SDS011;11965;53.640;10.050;2022-12-24T08:16:46;6.10;;;5.98;;
23573;SDS011;11965;53.640;10.050;2022-12-24T08:19:13;5.71;;;5.69;;
23573;SDS011;11965;53.640;10.050;2022-12-24T08:21:40;5.80;;;5.69;;
23573;SDS011;11965;53.640;10.050;2022-12-24T08:24:09;5.40;;;5.35;;
23573;SDS011;11965;53.640;10.050;2022-12-24T08:26:36;5.53;;;5.51;;
23573;SDS011;11965;53.640;10.050;2022-12-24T08:29:03;5.43;;;5.31;;
23573;SDS011;11965;53.640;10.050;2022-12-24T08:31:31;5.52;;;5.42;;
23573;SDS011;11965;53.640;10.050;2022-12-24T08:34:00;5.20;;;5.15;;
23573;SDS011;11965;53.640;10.050;2022-12-24T08:36:27;5.16;;;5.14;;
23573;SDS011;11965;53.640;10.050;2022-12-24T08:38:54;4.93;;;4.92;;
23573;SDS011;11965;53.640;10.050;2022-12-24T08:41:23;4.82;;;4.82;;
23573;SDS011;11965;53.640;10.050;2022-12-24T08:43:51;4.72;;;4.72;;
23573;SDS011;11965;53.640;10.050;2022-12-24T08:46:18;5.04;;;5.03;;
23573;SDS011;11965;53.640;10.050;2022-12-24T08:48:45;5.31;;;5.30;;
23573;SDS011;11965;53.640;10.050;2022-12-24T08:51:13;5.61;;;5.52;;
23573;SDS011;11965;53.640;10.050;2022-12-24T08:53:40;5.70;;;5.56;;
23573;SDS011;11965;53.640;10.050;2022-12-24T08:56:08;5.70;;;5.69;;
23573;SDS011;11965;53.640;10.050;2022-12-24T08:58:38;5.42;;;5.42;;
23573;SDS011;11965;53.640;10.050;2022-12-24T09:01:09;5.37;;;5.37;;
23573;SDS011;11965;53.640;10.050;2022-12-24T09:03:37;5.01;;;5.01;;
23573;SDS011;11965;53.640;10.050;2022-12-24T09:06:05;4.84;;;4.84;;
23573;SDS011;11965;53.640;10.050;2022-12-24T09:08:33;5.34;;;5.27;;
23573;SDS011;11965;53.640;10.050;2022-12-24T09:11:04;5.91;;;5.75;;
23573;SDS011;11965;53.640;10.050;2022-12-24T09:13:32;6.02;;;5.82;;
23573;SDS011;11965;53.640;10.050;2022-12-24T09:16:01;5.77;;;5.60;;
23573;SDS011;11965;53.640;10.050;2022-12-24T09:18:28;5.81;;;5.81;;
23573;SDS011;11965;53.640;10.050;2022-12-24T09:20:59;5.71;;;5.71;;
23573;SDS011;11965;53.640;10.050;2022-12-24T09:23:26;5.88;;;5.86;;
23573;SDS011;11965;53.640;10.050;2022-12-24T09:25:54;6.12;;;5.88;;
23573;SDS011;11965;53.640;10.050;2022-12-24T09:28:22;6.27;;;6.03;;
23573;SDS011;11965;53.640;10.050;2022-12-24T09:30:56;6.59;;;6.26;;
23573;SDS011;11965;53.640;10.050;2022-12-24T09:33:25;6.20;;;5.97;;
23573;SDS011;11965;53.640;10.050;2022-12-24T09:35:52;5.78;;;5.76;;
23573;SDS011;11965;53.640;10.050;2022-12-24T09:38:20;5.95;;;5.91;;
23573;SDS011;11965;53.640;10.050;2022-12-24T09:40:48;6.02;;;6.01;;
23573;SDS011;11965;53.640;10.050;2022-12-24T09:43:17;6.27;;;6.27;;
23573;SDS011;11965;53.640;10.050;2022-12-24T09:45:49;6.23;;;6.23;;
23573;SDS011;11965;53.640;10.050;2022-12-24T09:48:31;6.09;;;6.08;;
23573;SDS011;11965;53.640;10.050;2022-12-24T09:51:03;6.32;;;6.12;;
23573;SDS011;11965;53.640;10.050;2022-12-24T09:53:35;6.63;;;6.32;;
23573;SDS011;11965;53.640;10.050;2022-12-24T09:56:10;7.28;;;7.04;;
23573;SDS011;11965;53.640;10.050;2022-12-24T09:58:42;7.14;;;7.10;;
23573;SDS011;11965;53.640;10.050;2022-12-24T10:01:15;6.80;;;6.80;;
23573;SDS011;11965;53.640;10.050;2022-12-24T10:03:44;6.07;;;6.03;;
23573;SDS011;11965;53.640;10.050;2022-12-24T10:06:13;6.31;;;6.31;;
23573;SDS011;11965;53.640;10.050;2022-12-24T10:08:49;6.14;;;6.14;;
23573;SDS011;11965;53.640;10.050;2022-12-24T10:11:29;6.27;;;6.21;;
23573;SDS011;11965;53.640;10.050;2022-12-24T10:14:11;6.26;;;6.16;;
23573;SDS011;11965;53.640;10.050;2022-12-24T10:16:53;6.74;;;6.59;;
23573;SDS011;11965;53.640;10.050;2022-12-24T10:19:39;7.29;;;6.96;;
23573;SDS011;11965;53.640;10.050;2022-12-24T10:22:17;6.91;;;6.64;;
23573;SDS011;11965;53.640;10.050;2022-12-24T10:24:53;6.25;;;6.15;;
23573;SDS011;11965;53.640;10.050;2022-12-24T10:27:29;7.80;;;7.53;;
23573;SDS011;11965;53.640;10.050;2022-12-24T10:30:06;10.84;;;10.83;;
23573;SDS011;11965;53.640;10.050;2022-12-24T10:32:39;7.97;;;7.97;;
23573;SDS011;11965;53.640;10.050;2022-12-24T10:35:15;6.31;;;6.31;;
23573;SDS011;11965;53.640;10.050;2022-12-24T10:37:48;7.75;;;7.75;;
23573;SDS011;11965;53.640;10.050;2022-12-24T10:40:21;8.16;;;8.16;;
23573;SDS011;11965;53.640;10.050;2022-12-24T10:42:53;8.19;;;8.19;;
23573;SDS011;11965;53.640;10.050;2022-12-24T10:45:21;8.32;;;8.32;;
23573;SDS011;11965;53.640;10.050;2022-12-24T10:47:53;6.61;;;6.61;;
23573;SDS011;11965;53.640;10.050;2022-12-24T10:50:30;6.85;;;6.85;;
23573;SDS011;11965;53.640;10.050;2022-12-24T10:53:04;6.57;;;6.57;;
23573;SDS011;11965;53.640;10.050;2022-12-24T10:55:43;6.50;;;6.50;;
23573;SDS011;11965;53.640;10.050;2022-12-24T10:58:12;6.81;;;6.81;;
23573;SDS011;11965;53.640;10.050;2022-12-24T11:00:42;6.76;;;6.71;;
23573;SDS011;11965;53.640;10.050;2022-12-24T11:03:20;7.72;;;7.70;;
23573;SDS011;11965;53.640;10.050;2022-12-24T11:06:01;8.99;;;8.99;;
23573;SDS011;11965;53.640;10.050;2022-12-24T11:08:31;8.90;;;8.90;;
23573;SDS011;11965;53.640;10.050;2022-12-24T11:11:00;8.69;;;8.69;;
23573;SDS011;11965;53.640;10.050;2022-12-24T11:13:30;7.83;;;7.83;;
23573;SDS011;11965;53.640;10.050;2022-12-24T11:16:02;7.70;;;7.70;;
23573;SDS011;11965;53.640;10.050;2022-12-24T11:18:32;7.75;;;7.75;;
23573;SDS011;11965;53.640;10.050;2022-12-24T11:21:03;10.07;;;10.07;;
23573;SDS011;11965;53.640;10.050;2022-12-24T11:23:31;13.93;;;13.93;;
23573;SDS011;11965;53.640;10.050;2022-12-24T11:25:58;9.05;;;9.05;;
23573;SDS011;11965;53.640;10.050;2022-12-24T11:28:27;8.62;;;8.62;;
23573;SDS011;11965;53.640;10.050;2022-12-24T11:30:57;9.37;;;9.37;;
23573;SDS011;11965;53.640;10.050;2022-12-24T11:33:27;8.93;;;8.93;;
23573;SDS011;11965;53.640;10.050;2022-12-24T11:36:00;8.83;;;8.83;;
23573;SDS011;11965;53.640;10.050;2022-12-24T11:38:31;9.32;;;9.32;;
23573;SDS011;11965;53.640;10.050;2022-12-24T11:41:01;9.95;;;9.94;;
23573;SDS011;11965;53.640;10.050;2022-12-24T11:43:35;9.00;;;8.98;;
23573;SDS011;11965;53.640;10.050;2022-12-24T11:46:16;9.30;;;9.30;;
23573;SDS011;11965;53.640;10.050;2022-12-24T11:55:02;8.91;;;8.91;;
23573;SDS011;11965;53.640;10.050;2022-12-24T11:57:43;9.85;;;9.85;;
23573;SDS011;11965;53.640;10.050;2022-12-24T12:00:21;10.22;;;10.07;;
23573;SDS011;11965;53.640;10.050;2022-12-24T12:02:48;10.38;;;10.38;;
23573;SDS011;11965;53.640;10.050;2022-12-24T12:05:18;10.45;;;10.30;;
23573;SDS011;11965;53.640;10.050;2022-12-24T12:07:52;10.18;;;10.15;;
23573;SDS011;11965;53.640;10.050;2022-12-24T12:10:29;10.46;;;10.44;;
23573;SDS011;11965;53.640;10.050;2022-12-24T12:13:02;11.10;;;11.10;;
23573;SDS011;11965;53.640;10.050;2022-12-24T12:15:37;11.25;;;11.24;;
23573;SDS011;11965;53.640;10.050;2022-12-24T12:18:10;11.39;;;11.38;;
23573;SDS011;11965;53.640;10.050;2022-12-24T12:20:41;11.48;;;11.47;;
23573;SDS011;11965;53.640;10.050;2022-12-24T12:23:14;12.65;;;12.31;;
23573;SDS011;11965;53.640;10.050;2022-12-24T12:25:51;13.96;;;13.70;;
23573;SDS011;11965;53.640;10.050;2022-12-24T12:28:25;13.40;;;13.36;;
23573;SDS011;11965;53.640;10.050;2022-12-24T12:30:59;13.53;;;13.53;;
23573;SDS011;11965;53.640;10.050;2022-12-24T12:33:36;11.96;;;11.96;;
23573;SDS011;11965;53.640;10.050;2022-12-24T12:36:06;11.09;;;11.09;;
23573;SDS011;11965;53.640;10.050;2022-12-24T12:38:37;11.08;;;11.08;;
23573;SDS011;11965;53.640;10.050;2022-12-24T12:44:31;15.24;;;15.09;;
23573;SDS011;11965;53.640;10.050;2022-12-24T12:47:27;15.06;;;15.05;;
23573;SDS011;11965;53.640;10.050;2022-12-24T12:50:10;14.00;;;13.99;;
23573;SDS011;11965;53.640;10.050;2022-12-24T12:52:49;25.40;;;25.40;;
23573;SDS011;11965;53.640;10.050;2022-12-24T12:55:41;66.89;;;66.89;;
23573;SDS011;11965;53.640;10.050;2022-12-24T12:58:21;25.05;;;25.05;;
23573;SDS011;11965;53.640;10.050;2022-12-24T13:00:54;16.77;;;16.77;;
23573;SDS011;11965;53.640;10.050;2022-12-24T13:13:08;12.43;;;12.42;;
23573;SDS011;11965;53.640;10.050;2022-12-24T13:16:10;13.05;;;12.94;;
23573;SDS011;11965;53.640;10.050;2022-12-24T13:19:07;13.21;;;12.99;;
23573;SDS011;11965;53.640;10.050;2022-12-24T13:21:48;13.91;;;13.61;;
23573;SDS011;11965;53.640;10.050;2022-12-24T13:24:20;13.23;;;13.17;;
23573;SDS011;11965;53.640;10.050;2022-12-24T13:27:00;12.37;;;12.22;;
23573;SDS011;11965;53.640;10.050;2022-12-24T13:29:42;12.83;;;12.83;;
23573;SDS011;11965;53.640;10.050;2022-12-24T13:35:25;13.05;;;13.04;;
23573;SDS011;11965;53.640;10.050;2022-12-24T13:44:22;13.08;;;13.00;;
23573;SDS011;11965;53.640;10.050;2022-12-24T13:47:01;12.09;;;11.99;;
23573;SDS011;11965;53.640;10.050;2022-12-24T13:49:44;12.21;;;12.17;;
23573;SDS011;11965;53.640;10.050;2022-12-24T13:52:28;13.45;;;13.08;;
23573;SDS011;11965;53.640;10.050;2022-12-24T13:55:00;13.18;;;13.11;;
23573;SDS011;11965;53.640;10.050;2022-12-24T13:57:34;12.91;;;12.68;;
23573;SDS011;11965;53.640;10.050;2022-12-24T14:00:07;12.96;;;12.80;;
23573;SDS011;11965;53.640;10.050;2022-12-24T14:03:06;12.76;;;12.70;;
23573;SDS011;11965;53.640;10.050;2022-12-24T14:05:49;13.05;;;13.05;;
23573;SDS011;11965;53.640;10.050;2022-12-24T14:08:27;13.25;;;13.25;;
23573;SDS011;11965;53.640;10.050;2022-12-24T14:11:02;12.47;;;12.47;;
23573;SDS011;11965;53.640;10.050;2022-12-24T14:14:07;12.84;;;12.83;;
23573;SDS011;11965;53.640;10.050;2022-12-24T14:16:40;12.93;;;12.90;;
23573;SDS011;11965;53.640;10.050;2022-12-24T14:19:12;13.81;;;13.69;;
23573;SDS011;11965;53.640;10.050;2022-12-24T14:21:44;13.26;;;13.26;;
23573;SDS011;11965;53.640;10.050;2022-12-24T14:24:21;14.64;;;14.63;;
23573;SDS011;11965;53.640;10.050;2022-12-24T14:26:52;18.12;;;18.09;;
23573;SDS011;11965;53.640;10.050;2022-12-24T14:29:25;20.96;;;20.83;;
23573;SDS011;11965;53.640;10.050;2022-12-24T14:31:58;17.45;;;17.39;;
23573;SDS011;11965;53.640;10.050;2022-12-24T14:34:28;17.39;;;17.08;;
23573;SDS011;11965;53.640;10.050;2022-12-24T14:36:57;19.65;;;18.85;;
23573;SDS011;11965;53.640;10.050;2022-12-24T14:39:30;21.48;;;21.06;;
23573;SDS011;11965;53.640;10.050;2022-12-24T14:42:03;23.27;;;22.99;;
23573;SDS011;11965;53.640;10.050;2022-12-24T14:44:45;22.17;;;21.82;;
23573;SDS011;11965;53.640;10.050;2022-12-24T14:47:24;22.91;;;22.43;;
23573;SDS011;11965;53.640;10.050;2022-12-24T14:50:09;22.42;;;21.80;;
23573;SDS011;11965;53.640;10.050;2022-12-24T14:52:57;21.05;;;20.85;;
23573;SDS011;11965;53.640;10.050;2022-12-24T14:55:35;20.36;;;20.27;;
23573;SDS011;11965;53.640;10.050;2022-12-24T14:58:17;19.02;;;18.88;;
23573;SDS011;11965;53.640;10.050;2022-12-24T15:00:48;20.42;;;20.37;;
23573;SDS011;11965;53.640;10.050;2022-12-24T15:03:21;20.32;;;20.03;;
23573;SDS011;11965;53.640;10.050;2022-12-24T15:05:50;20.79;;;20.67;;
23573;SDS011;11965;53.640;10.050;2022-12-24T15:08:22;21.77;;;21.63;;
23573;SDS011;11965;53.640;10.050;2022-12-24T15:10:56;21.82;;;21.72;;
23573;SDS011;11965;53.640;10.050;2022-12-24T15:13:29;22.11;;;22.05;;
23573;SDS011;11965;53.640;10.050;2022-12-24T15:16:00;23.32;;;23.18;;
23573;SDS011;11965;53.640;10.050;2022-12-24T15:18:29;24.08;;;23.57;;